Terminal Aerodrome Forecast
Issued by NWS

Home | Current Version | Previous Version | Text Only | Print | Product List | Glossary On
Versions: 1 2 3 4 5 6 7 8 9 10 11 12 13 14 15 16 17 18
000
FTUS43 KGRR 311700 RRA
TAFJXN
TAF
KJXN 311745Z 3118/0118 36017G29KT 6SM -RASN OVC015
     FM312100 36015G26KT P6SM -SN OVC020
     FM010300 36012G20KT P6SM BKN025
     FM010900 36012KT P6SM BKN035
     FM011400 01011KT P6SM SCT040=

USA.gov is the U.S. government's official web portal to all federal, state and local government web resources and services.